Bookmark and Share
Track history (hours):
 

Vano

Last reported at 2014-Apr-21 14:26 UTC. Time now 2014-Apr-21 15:11 UTC.
Position N 59°23' E 018°21'.

Length 38 m; draft 1.8 m.

Type: Passenger vessel. MMSI: 265520400.

NotesDate/timePositionNaut miles runAvg speedWind from/ knotsBaromVisibWave heightAir tempDewpointWater temp
2014-Apr-21 14:26N 59°23' E 018°21'910.1
2014-Apr-21 13:33N 59°20' E 018°05'9 1.5
2014-Apr-21 07:31N 59°23' E 018°20'9 9.3
2014-Apr-21 06:33N 59°20' E 018°05'0 0.0
2014-Apr-21 05:33N 59°20' E 018°05'0 0.0
2014-Apr-21 04:33N 59°20' E 018°05'0 0.0
2014-Apr-21 03:33N 59°20' E 018°05'0 0.0
2014-Apr-21 02:33N 59°20' E 018°05'0 0.0
2014-Apr-21 01:33N 59°20' E 018°05'0 0.0
2014-Apr-21 00:33N 59°20' E 018°05'0 0.0
2014-Apr-20 23:33N 59°20' E 018°05'0 0.0
2014-Apr-20 22:33N 59°20' E 018°05'0 0.0
2014-Apr-20 21:33N 59°20' E 018°05'0 0.0
2014-Apr-20 20:33N 59°20' E 018°05'0 0.0
2014-Apr-20 19:33N 59°20' E 018°05'9 1.7
2014-Apr-20 14:28N 59°23' E 018°21'9 9.7
2014-Apr-20 13:33N 59°20' E 018°04'8 1.4
2014-Apr-20 07:32N 59°23' E 018°20'8 8.7
2014-Apr-20 06:33N 59°20' E 018°04'0 0.0
2014-Apr-20 05:32N 59°20' E 018°04'0 0.0
2014-Apr-20 04:34N 59°20' E 018°04'0 0.0
2014-Apr-19 15:34N 59°20' E 018°05'1 0.8
2014-Apr-19 14:33N 59°19' E 018°06'8 1.1
2014-Apr-19 07:19N 59°22' E 018°20'811.0
2014-Apr-19 06:33N 59°19' E 018°05'0 0.5
2014-Apr-19 05:33N 59°20' E 018°05'0 0.0
2014-Apr-19 04:34N 59°20' E 018°05'0 0.0
2014-Apr-19 03:34N 59°20' E 018°05'0 0.0
2014-Apr-19 02:33N 59°20' E 018°05'0 0.0
2014-Apr-19 01:33N 59°20' E 018°05'0 0.0
2014-Apr-19 00:34N 59°20' E 018°05'0 0.0
2014-Apr-18 23:33N 59°20' E 018°05'0 0.0
2014-Apr-18 22:33N 59°20' E 018°05'0 0.0
2014-Apr-18 21:33N 59°20' E 018°05'0 0.0
2014-Apr-18 20:33N 59°20' E 018°05'0 0.0
2014-Apr-18 19:33N 59°20' E 018°05'1 1.2
2014-Apr-18 18:33N 59°19' E 018°06'8 2.0
2014-Apr-18 14:28N 59°23' E 018°20'9 9.6
2014-Apr-18 13:33N 59°20' E 018°05'9 0.4
2014-Apr-17 17:18N 59°23' E 018°21'911.9
2014-Apr-17 16:34N 59°19' E 018°05'0 0.5
2014-Apr-17 15:34N 59°20' E 018°05'0 0.0
2014-Apr-17 14:34N 59°20' E 018°05'6 5.8
2014-Apr-17 13:32N 59°22' E 018°16'3 0.5
2014-Apr-17 07:29N 59°23' E 018°21'9 9.6
2014-Apr-17 06:33N 59°19' E 018°05'0 0.4
2014-Apr-17 05:33N 59°20' E 018°04'0 0.0
2014-Apr-17 04:33N 59°20' E 018°04'0 0.0
2014-Apr-17 03:33N 59°20' E 018°04'0 0.0
2014-Apr-17 02:33N 59°20' E 018°04'0 0.0
2014-Apr-17 01:33N 59°20' E 018°04'0 0.0
2014-Apr-17 00:33N 59°20' E 018°04'0 0.0
2014-Apr-16 23:33N 59°20' E 018°04'0 0.0
2014-Apr-16 22:33N 59°20' E 018°04'0 0.0
2014-Apr-16 21:33N 59°20' E 018°05'0 0.0
2014-Apr-16 20:33N 59°20' E 018°04'0 0.0
2014-Apr-16 19:33N 59°20' E 018°04'0 0.0
2014-Apr-16 18:33N 59°20' E 018°04'0 0.0
2014-Apr-16 17:33N 59°20' E 018°04'0 0.0
2014-Apr-16 16:33N 59°20' E 018°04'0 0.0
2014-Apr-16 15:33N 59°20' E 018°04'0 0.0
2014-Apr-16 14:33N 59°20' E 018°04'0 0.0
2014-Apr-16 13:33N 59°20' E 018°04'0 0.0
2014-Apr-16 12:33N 59°20' E 018°04'0 0.4
2014-Apr-16 11:33N 59°19' E 018°05'0 0.4
2014-Apr-16 10:33N 59°20' E 018°05'0 0.0
2014-Apr-16 09:33N 59°20' E 018°05'0 0.0
2014-Apr-16 08:33N 59°20' E 018°05'0 0.0
2014-Apr-16 07:33N 59°20' E 018°05'0 0.0
2014-Apr-16 06:33N 59°20' E 018°05'0 0.0
2014-Apr-16 05:33N 59°20' E 018°05'0 0.0
2014-Apr-16 04:33N 59°20' E 018°05'0 0.0
2014-Apr-16 03:33N 59°20' E 018°05'0 0.0
2014-Apr-16 02:33N 59°20' E 018°05'0 0.0
2014-Apr-16 01:33N 59°20' E 018°05'0 0.0
2014-Apr-16 00:33N 59°20' E 018°05'0 0.0
2014-Apr-15 23:33N 59°20' E 018°05'0 0.0
2014-Apr-15 22:33N 59°20' E 018°05'0 0.0
2014-Apr-15 21:33N 59°20' E 018°05'0 0.0
2014-Apr-15 20:33N 59°20' E 018°05'0 0.0
2014-Apr-15 19:33N 59°20' E 018°05'0 0.0
2014-Apr-15 18:33N 59°20' E 018°05'0 0.0
2014-Apr-15 17:34N 59°20' E 018°05'0 0.0
2014-Apr-15 16:33N 59°20' E 018°05'0 0.0
2014-Apr-15 15:33N 59°20' E 018°05'0 0.0
2014-Apr-15 14:33N 59°20' E 018°05'0 0.0
2014-Apr-15 12:34N 59°20' E 018°05'0 0.0
2014-Apr-15 11:34N 59°20' E 018°05'0 0.0
2014-Apr-15 10:34N 59°20' E 018°05'0 0.1
2014-Apr-15 09:34N 59°20' E 018°05'0 0.1
2014-Apr-15 08:34N 59°20' E 018°05'0 0.0
2014-Apr-15 07:34N 59°20' E 018°05'0 0.0
2014-Apr-15 06:34N 59°20' E 018°05'0 0.0
2014-Apr-13 06:34N 59°20' E 018°05'0 0.0
2014-Apr-13 05:34N 59°20' E 018°05'0 0.0
2014-Apr-13 04:33N 59°20' E 018°05'0 0.0
2014-Apr-13 03:33N 59°20' E 018°05'0 0.0
2014-Apr-13 02:33N 59°20' E 018°05'0 0.0
2014-Apr-13 01:33N 59°20' E 018°05'0 0.0
2014-Apr-13 00:33N 59°20' E 018°05'0 0.0
2014-Apr-12 23:33N 59°20' E 018°05'0 0.0
2014-Apr-12 22:33N 59°20' E 018°05'0 0.0
2014-Apr-12 21:33N 59°20' E 018°05'0 0.0
2014-Apr-12 20:33N 59°20' E 018°05'0 0.0
2014-Apr-12 19:33N 59°20' E 018°05'0 0.0
2014-Apr-12 18:33N 59°20' E 018°05'0 0.0
2014-Apr-12 17:33N 59°20' E 018°05'0 0.0
2014-Apr-12 16:33N 59°20' E 018°05'0 0.0
2014-Apr-12 15:33N 59°20' E 018°05'0 0.0
2014-Apr-12 14:33N 59°20' E 018°05'0 0.0
2014-Apr-12 13:33N 59°20' E 018°05'0 0.0
2014-Apr-12 12:33N 59°20' E 018°05'0 0.0
2014-Apr-12 11:33N 59°20' E 018°05'0 0.0
2014-Apr-12 10:33N 59°20' E 018°05'0 0.0
2014-Apr-12 09:33N 59°20' E 018°05'0 0.0
2014-Apr-12 08:33N 59°20' E 018°05'0 0.0
2014-Apr-12 07:21N 59°20' E 018°05'0 0.0
2014-Apr-12 06:33N 59°20' E 018°05'0 0.0
2014-Apr-12 05:33N 59°20' E 018°05'0 0.0
2014-Apr-12 04:33N 59°20' E 018°05'0 0.0
2014-Apr-12 03:33N 59°20' E 018°05'0 0.0
2014-Apr-12 02:33N 59°20' E 018°05'0 0.0
2014-Apr-12 01:33N 59°20' E 018°05'0 0.0
2014-Apr-12 00:33N 59°20' E 018°05'0 0.0
2014-Apr-11 23:33N 59°20' E 018°05'0 0.0
2014-Apr-11 22:33N 59°20' E 018°05'0 0.0
2014-Apr-11 21:33N 59°20' E 018°05'0 0.0
2014-Apr-11 20:33N 59°20' E 018°05'0 0.0
2014-Apr-11 19:33N 59°20' E 018°05'0 0.0
2014-Apr-11 18:33N 59°20' E 018°05'0 0.0
2014-Apr-11 17:33N 59°20' E 018°05'0 0.0
2014-Apr-11 16:33N 59°20' E 018°05'0 0.0
2014-Apr-11 15:33N 59°20' E 018°05'0 0.0
2014-Apr-11 14:33N 59°20' E 018°05'  

Dump ship's entire track history

sailing weather and tide predictions

Vano — SBNM — position and weather